createdAt,value
2023-03-08T00:01:22.682Z,52.00
2023-03-08T00:03:58.988Z,52.00
2023-03-08T00:06:32.141Z,52.10
2023-03-08T00:09:05.326Z,52.40
2023-03-08T00:11:38.439Z,52.30
2023-03-08T00:14:12.054Z,52.30
2023-03-08T00:16:45.335Z,52.40
2023-03-08T00:19:20.078Z,52.40
2023-03-08T00:21:53.434Z,52.50
2023-03-08T00:24:26.589Z,52.50
2023-03-08T00:26:59.672Z,52.10
2023-03-08T00:29:32.913Z,52.20
2023-03-08T00:32:06.257Z,52.40
2023-03-08T00:34:46.303Z,52.20
2023-03-08T00:37:19.461Z,51.80
2023-03-08T00:39:53.336Z,51.60
2023-03-08T00:42:26.523Z,51.60
2023-03-08T00:44:59.581Z,51.50
2023-03-08T00:47:35.487Z,51.40
2023-03-08T00:50:10.962Z,51.20
2023-03-08T00:52:44.061Z,51.20
2023-03-08T00:55:18.952Z,51.50
2023-03-08T00:57:53.291Z,51.50
2023-03-08T01:00:26.538Z,51.40
2023-03-08T01:03:00.729Z,51.40
2023-03-08T01:05:35.374Z,51.40
2023-03-08T01:08:08.486Z,51.30
2023-03-08T01:10:41.639Z,51.30
2023-03-08T01:13:14.724Z,51.20
2023-03-08T01:15:49.758Z,51.20
2023-03-08T01:18:22.893Z,51.20
2023-03-08T01:20:59.444Z,51.20
2023-03-08T01:23:33.019Z,51.20
2023-03-08T01:26:08.028Z,51.20
2023-03-08T01:28:41.143Z,51.10
2023-03-08T01:31:16.006Z,51.10
2023-03-08T01:33:49.544Z,51.00
2023-03-08T01:36:25.461Z,50.90
2023-03-08T01:39:00.794Z,51.00
2023-03-08T01:41:34.107Z,51.00
2023-03-08T01:44:08.099Z,50.90
2023-03-08T01:46:41.342Z,50.90
2023-03-08T01:49:32.753Z,50.90
2023-03-08T01:52:09.975Z,50.90
2023-03-08T01:54:46.958Z,50.90
2023-03-08T01:57:22.602Z,51.10
2023-03-08T01:59:57.695Z,51.50
2023-03-08T02:02:33.036Z,52.00
2023-03-08T02:05:06.509Z,52.20
2023-03-08T02:07:41.216Z,52.40
2023-03-08T02:10:14.808Z,52.40
2023-03-08T02:12:48.748Z,52.40
2023-03-08T02:15:22.687Z,52.50
2023-03-08T02:17:59.469Z,52.50
2023-03-08T02:20:34.192Z,52.50
2023-03-08T02:23:15.105Z,52.60
2023-03-08T02:25:51.760Z,52.50
2023-03-08T02:28:25.936Z,52.60
2023-03-08T02:30:59.244Z,52.50
2023-03-08T02:33:32.414Z,52.50
2023-03-08T02:36:07.530Z,52.50
2023-03-08T02:38:42.218Z,52.60
2023-03-08T02:41:15.330Z,52.40
2023-03-08T02:43:50.052Z,52.40
2023-03-08T02:46:23.180Z,52.50
2023-03-08T02:48:57.102Z,52.50
2023-03-08T02:51:30.227Z,52.50
2023-03-08T02:54:06.439Z,52.50
2023-03-08T02:56:39.643Z,52.50
2023-03-08T02:59:13.769Z,52.50
2023-03-08T03:01:48.507Z,52.50
2023-03-08T03:04:21.767Z,52.50
2023-03-08T03:06:54.973Z,52.60
2023-03-08T03:09:30.101Z,52.60
2023-03-08T03:12:03.992Z,52.70
2023-03-08T03:14:41.579Z,52.80
2023-03-08T03:17:14.917Z,52.70
2023-03-08T03:19:48.135Z,52.80
2023-03-08T03:22:21.249Z,52.80
2023-03-08T03:24:55.934Z,52.80
2023-03-08T03:27:29.139Z,52.80
2023-03-08T03:30:03.027Z,52.80
2023-03-08T03:32:37.079Z,52.80
2023-03-08T03:35:11.368Z,52.80
2023-03-08T03:37:44.573Z,52.60
2023-03-08T03:40:19.376Z,52.60
2023-03-08T03:42:55.859Z,52.60
2023-03-08T03:45:30.119Z,52.70
2023-03-08T03:48:03.276Z,52.70
2023-03-08T03:50:36.891Z,52.70
2023-03-08T03:53:15.327Z,52.60
2023-03-08T03:55:49.788Z,52.60
2023-03-08T03:58:23.388Z,52.60
2023-03-08T04:00:57.208Z,52.60
2023-03-08T04:03:36.536Z,52.60
2023-03-08T04:06:10.464Z,52.70
2023-03-08T04:08:44.407Z,52.60
2023-03-08T04:11:24.263Z,52.80
2023-03-08T04:13:58.179Z,52.70
2023-03-08T04:16:34.966Z,52.70
2023-03-08T04:19:12.591Z,52.70
2023-03-08T04:21:52.504Z,52.70
2023-03-08T04:24:29.658Z,52.70
2023-03-08T04:27:08.887Z,52.60
2023-03-08T04:29:42.505Z,52.70
2023-03-08T04:32:16.308Z,52.70
2023-03-08T04:34:54.656Z,52.60
2023-03-08T04:37:31.311Z,52.60
2023-03-08T04:40:13.053Z,52.60
2023-03-08T04:42:54.860Z,52.60
2023-03-08T04:45:32.993Z,52.60
2023-03-08T04:48:09.956Z,52.60
2023-03-08T04:50:44.717Z,52.50
2023-03-08T04:53:19.240Z,52.60
2023-03-08T04:55:52.809Z,52.60
2023-03-08T04:58:27.655Z,52.60
2023-03-08T05:01:01.022Z,52.60
2023-03-08T05:03:34.176Z,52.60
2023-03-08T05:06:07.661Z,52.70
2023-03-08T05:08:41.030Z,52.60
2023-03-08T05:11:17.516Z,52.60
2023-03-08T05:13:53.889Z,52.70
2023-03-08T05:16:27.938Z,52.70
2023-03-08T05:19:01.262Z,52.80
2023-03-08T05:21:39.834Z,52.80
2023-03-08T05:24:13.400Z,52.80
2023-03-08T05:26:46.862Z,52.70
2023-03-08T05:29:24.496Z,52.80
2023-03-08T05:31:58.985Z,52.70
2023-03-08T05:34:32.138Z,52.80
2023-03-08T05:37:06.609Z,52.80
2023-03-08T05:39:41.632Z,52.70
2023-03-08T05:42:21.110Z,52.70
2023-03-08T05:44:55.712Z,52.60
2023-03-08T05:47:34.383Z,52.60
2023-03-08T05:50:08.055Z,52.60
2023-03-08T05:52:43.577Z,52.60
2023-03-08T05:55:20.624Z,52.60
2023-03-08T05:57:54.268Z,52.50
2023-03-08T06:00:29.430Z,52.50
2023-03-08T06:03:04.642Z,52.50
2023-03-08T06:05:40.911Z,52.50
2023-03-08T06:08:14.202Z,52.50
2023-03-08T06:10:47.373Z,52.40
2023-03-08T06:13:21.731Z,52.20
2023-03-08T06:15:57.164Z,52.20
2023-03-08T06:18:31.203Z,52.30
2023-03-08T06:21:06.304Z,52.40
2023-03-08T06:23:41.538Z,52.30
2023-03-08T06:26:15.887Z,51.60
2023-03-08T06:28:50.130Z,50.90
2023-03-08T06:31:24.907Z,50.30
2023-03-08T06:33:58.398Z,49.80
2023-03-08T06:36:33.772Z,49.30
2023-03-08T06:39:07.356Z,48.70
2023-03-08T06:41:41.712Z,48.90
2023-03-08T06:44:15.586Z,48.80
2023-03-08T06:46:50.132Z,48.80
2023-03-08T06:49:23.408Z,48.80
2023-03-08T06:51:56.497Z,48.80
2023-03-08T06:54:29.876Z,48.60
2023-03-08T06:57:03.831Z,48.60
2023-03-08T06:59:38.239Z,48.60
2023-03-08T07:02:12.838Z,48.50
2023-03-08T07:04:48.028Z,48.30
2023-03-08T07:07:22.443Z,48.10
2023-03-08T07:09:55.561Z,48.10
2023-03-08T07:12:31.192Z,48.00
2023-03-08T07:15:04.712Z,47.80
2023-03-08T07:17:40.213Z,48.30
2023-03-08T07:20:14.138Z,48.70
2023-03-08T07:22:48.162Z,48.80
2023-03-08T07:25:22.253Z,48.80
2023-03-08T07:27:55.435Z,48.70
2023-03-08T07:30:28.834Z,48.40
2023-03-08T07:33:03.495Z,48.20
2023-03-08T07:35:38.966Z,48.20
2023-03-08T07:38:13.192Z,48.30
2023-03-08T07:40:46.324Z,48.20
2023-03-08T07:43:19.457Z,48.50
2023-03-08T07:46:10.257Z,48.50
2023-03-08T07:48:44.818Z,48.60
2023-03-08T07:51:18.033Z,48.30
2023-03-08T07:53:52.354Z,48.20
2023-03-08T07:56:25.488Z,47.90
2023-03-08T07:58:58.595Z,47.70
2023-03-08T08:01:33.464Z,47.40
2023-03-08T08:04:08.934Z,47.20
2023-03-08T08:06:42.342Z,47.00
2023-03-08T08:09:15.788Z,46.30
2023-03-08T08:11:48.880Z,46.50
2023-03-08T08:14:21.955Z,46.20
2023-03-08T08:16:55.109Z,45.90
2023-03-08T08:19:29.705Z,45.20
2023-03-08T08:22:02.869Z,45.10
2023-03-08T08:24:35.939Z,45.00
2023-03-08T08:27:09.048Z,45.00
2023-03-08T08:29:44.090Z,44.90
2023-03-08T08:32:17.436Z,45.00
2023-03-08T08:34:51.999Z,44.90
2023-03-08T08:37:25.100Z,45.00
2023-03-08T08:39:58.258Z,44.90
2023-03-08T08:42:31.592Z,44.90
2023-03-08T08:45:05.070Z,44.80
2023-03-08T08:47:38.205Z,44.80
2023-03-08T08:50:14.183Z,44.90
2023-03-08T08:52:47.400Z,44.90
2023-03-08T08:55:21.315Z,44.80
2023-03-08T08:57:54.443Z,44.80
2023-03-08T09:00:27.654Z,44.60
2023-03-08T09:03:00.894Z,44.40
2023-03-08T09:05:59.450Z,43.90
2023-03-08T09:08:33.998Z,42.60
2023-03-08T09:11:07.841Z,42.80
2023-03-08T09:13:42.284Z,41.90
2023-03-08T09:16:19.190Z,40.00
2023-03-08T09:18:52.311Z,39.70
2023-03-08T09:21:25.802Z,39.50
2023-03-08T09:24:02.028Z,39.40
2023-03-08T09:26:35.498Z,39.50
2023-03-08T09:29:08.589Z,39.60
2023-03-08T09:31:42.486Z,39.80
2023-03-08T09:34:16.476Z,39.80
2023-03-08T09:36:49.576Z,39.80
2023-03-08T09:39:24.209Z,39.90
2023-03-08T09:41:58.514Z,40.00
2023-03-08T09:44:49.648Z,40.10
2023-03-08T09:47:32.415Z,40.30
2023-03-08T09:50:10.005Z,40.40
2023-03-08T09:52:44.295Z,40.60
2023-03-08T09:55:26.282Z,40.70
2023-03-08T09:58:01.046Z,40.80
2023-03-08T10:00:35.878Z,40.90
2023-03-08T10:03:19.044Z,41.20
2023-03-08T10:05:54.952Z,41.20
2023-03-08T10:08:32.257Z,41.20
2023-03-08T10:11:08.348Z,41.20
2023-03-08T10:13:42.739Z,41.20
2023-03-08T10:16:18.522Z,41.20
2023-03-08T10:18:52.526Z,41.20
2023-03-08T10:21:27.015Z,41.20
2023-03-08T10:24:01.375Z,41.00
2023-03-08T10:26:35.885Z,41.10
2023-03-08T10:29:10.371Z,41.00
2023-03-08T10:31:44.227Z,41.10
2023-03-08T10:34:19.202Z,41.70
2023-03-08T10:36:53.888Z,41.20
2023-03-08T10:39:27.389Z,35.50
2023-03-08T10:42:02.941Z,31.30
2023-03-08T10:44:40.068Z,30.40
2023-03-08T10:47:20.881Z,33.20
2023-03-08T10:50:07.839Z,33.60
2023-03-08T10:52:41.405Z,33.00
2023-03-08T10:55:15.548Z,34.00
2023-03-08T10:57:54.973Z,35.30
2023-03-08T11:00:35.319Z,35.30
2023-03-08T11:03:16.718Z,36.50
2023-03-08T11:05:54.342Z,35.90
2023-03-08T11:08:29.986Z,35.70
2023-03-08T11:11:08.057Z,36.00
2023-03-08T11:13:45.122Z,36.30
2023-03-08T11:16:39.118Z,36.30
2023-03-08T11:19:17.397Z,35.60
2023-03-08T11:21:55.044Z,36.40
2023-03-08T11:24:34.234Z,37.20
2023-03-08T11:27:16.830Z,37.40
2023-03-08T11:29:58.733Z,37.50
2023-03-08T11:32:41.122Z,37.70
2023-03-08T11:35:24.649Z,37.80
2023-03-08T11:38:00.954Z,37.80
2023-03-08T11:40:40.657Z,38.30
2023-03-08T11:43:28.959Z,38.30
2023-03-08T11:46:06.193Z,38.10
2023-03-08T11:48:46.779Z,38.40
2023-03-08T11:51:23.177Z,39.00
2023-03-08T11:54:01.424Z,39.40
2023-03-08T11:56:38.974Z,38.70
2023-03-08T11:59:16.649Z,38.20
2023-03-08T12:01:53.407Z,38.40
2023-03-08T12:04:31.223Z,39.00
2023-03-08T12:07:07.741Z,39.40
2023-03-08T12:09:44.210Z,38.50
2023-03-08T12:12:19.832Z,38.70
2023-03-08T12:14:55.939Z,38.80
2023-03-08T12:17:33.337Z,39.00
2023-03-08T12:20:08.253Z,39.10
2023-03-08T12:22:46.090Z,39.80
2023-03-08T12:25:24.385Z,39.30
2023-03-08T12:28:00.941Z,39.40
2023-03-08T12:30:42.776Z,39.60
2023-03-08T12:33:18.287Z,39.80
2023-03-08T12:35:52.817Z,40.00
2023-03-08T12:38:30.518Z,40.00
2023-03-08T12:41:04.472Z,40.10
2023-03-08T12:43:38.687Z,40.10
2023-03-08T12:46:12.385Z,40.20
2023-03-08T12:48:50.673Z,40.30
2023-03-08T12:51:26.317Z,40.70
2023-03-08T12:54:01.517Z,40.70
2023-03-08T12:56:37.495Z,40.50
2023-03-08T12:59:26.584Z,40.40
2023-03-08T13:02:04.350Z,40.20
2023-03-08T13:04:43.007Z,40.30
2023-03-08T13:07:25.512Z,40.30
2023-03-08T13:10:01.646Z,40.30
2023-03-08T13:12:39.437Z,39.90
2023-03-08T13:15:23.742Z,40.40
2023-03-08T13:18:03.818Z,40.70
2023-03-08T13:23:37.486Z,40.00
2023-03-08T13:26:17.556Z,40.70
2023-03-08T13:28:50.723Z,40.90
2023-03-08T13:31:25.146Z,40.80
2023-03-08T13:33:59.239Z,39.80
2023-03-08T13:36:32.943Z,40.60
2023-03-08T13:39:08.143Z,40.90
2023-03-08T13:41:42.778Z,40.90
2023-03-08T13:44:18.627Z,40.80
2023-03-08T13:46:53.061Z,40.20
2023-03-08T13:49:27.442Z,39.90
2023-03-08T13:52:02.172Z,40.10
2023-03-08T13:54:38.392Z,40.10
2023-03-08T13:57:19.239Z,40.10
2023-03-08T13:59:53.679Z,40.10
2023-03-08T14:02:27.973Z,40.20
2023-03-08T14:05:01.301Z,40.00
2023-03-08T14:07:34.618Z,40.30
2023-03-08T14:10:13.776Z,40.20
2023-03-08T14:12:46.986Z,40.00
2023-03-08T14:15:20.657Z,40.20
2023-03-08T14:17:54.181Z,40.40
2023-03-08T14:20:27.799Z,40.50
2023-03-08T14:23:01.084Z,40.40
2023-03-08T14:25:35.701Z,41.10
2023-03-08T14:28:34.017Z,41.10
2023-03-08T14:31:22.077Z,41.10
2023-03-08T14:33:59.122Z,41.10
2023-03-08T14:36:34.714Z,41.20
2023-03-08T14:39:08.073Z,41.10
2023-03-08T14:41:42.599Z,41.20
2023-03-08T14:44:19.230Z,41.00
2023-03-08T14:46:58.371Z,41.30
2023-03-08T14:49:31.561Z,41.10
2023-03-08T14:52:04.765Z,41.30
2023-03-08T14:54:38.541Z,41.40
2023-03-08T14:57:18.231Z,41.40
2023-03-08T15:00:15.176Z,41.40
2023-03-08T15:02:48.226Z,41.30
2023-03-08T15:05:28.705Z,41.10
2023-03-08T15:08:02.531Z,41.10
2023-03-08T15:10:37.744Z,41.30
2023-03-08T15:13:14.666Z,41.30
2023-03-08T15:15:47.991Z,41.50
2023-03-08T15:18:21.588Z,41.80
2023-03-08T15:20:59.497Z,42.10
2023-03-08T15:23:34.053Z,42.10
2023-03-08T15:26:07.697Z,42.50
2023-03-08T15:28:42.236Z,42.70
2023-03-08T15:31:15.519Z,42.70
2023-03-08T15:33:48.994Z,42.70
2023-03-08T15:36:22.137Z,42.90
2023-03-08T15:38:55.242Z,42.70
2023-03-08T15:41:28.364Z,42.70
2023-03-08T15:44:03.136Z,42.70
2023-03-08T15:46:36.422Z,42.70
2023-03-08T15:49:10.913Z,42.70
2023-03-08T15:51:44.238Z,42.90
2023-03-08T15:54:17.390Z,42.90
2023-03-08T15:56:50.768Z,43.60
2023-03-08T15:59:25.234Z,43.10
2023-03-08T16:01:58.558Z,43.10
2023-03-08T16:04:31.707Z,43.30
2023-03-08T16:07:04.918Z,43.30
2023-03-08T16:09:38.067Z,43.30
2023-03-08T16:12:11.332Z,35.20
2023-03-08T16:14:49.157Z,29.80
2023-03-08T16:17:22.596Z,31.50
2023-03-08T16:19:55.718Z,32.70
2023-03-08T16:22:29.122Z,34.30
2023-03-08T16:25:02.242Z,34.80
2023-03-08T16:27:38.283Z,35.20
2023-03-08T16:30:13.890Z,35.70
2023-03-08T16:32:47.138Z,36.00
2023-03-08T16:35:20.354Z,36.00
2023-03-08T16:37:53.962Z,36.30
2023-03-08T16:40:31.173Z,36.50
2023-03-08T16:43:04.317Z,36.50
2023-03-08T16:45:38.953Z,36.80
2023-03-08T16:48:12.081Z,37.20
2023-03-08T16:50:50.543Z,37.10
2023-03-08T16:53:24.084Z,37.60
2023-03-08T16:55:57.167Z,37.70
2023-03-08T16:58:30.274Z,37.70
2023-03-08T17:01:11.030Z,37.60
2023-03-08T17:03:44.274Z,38.10
2023-03-08T17:06:19.023Z,38.10
2023-03-08T17:08:52.197Z,37.60
2023-03-08T17:11:26.321Z,38.10
2023-03-08T17:14:00.368Z,37.90
2023-03-08T17:16:35.592Z,38.30
2023-03-08T17:19:09.409Z,37.50
2023-03-08T17:21:42.498Z,37.80
2023-03-08T17:24:15.689Z,38.00
2023-03-08T17:26:50.121Z,38.30
2023-03-08T17:29:23.243Z,38.20
2023-03-08T17:31:57.666Z,38.20
2023-03-08T17:34:30.770Z,38.50
2023-03-08T17:37:03.956Z,38.90
2023-03-08T17:39:37.048Z,38.90
2023-03-08T17:42:10.206Z,38.80
2023-03-08T17:44:43.363Z,38.90
2023-03-08T17:47:17.882Z,39.10
2023-03-08T17:49:51.027Z,39.60
2023-03-08T17:52:24.143Z,40.10
2023-03-08T17:54:57.288Z,40.40
2023-03-08T17:57:30.468Z,40.70
2023-03-08T18:00:05.519Z,41.20
2023-03-08T18:02:40.151Z,41.40
2023-03-08T18:05:13.585Z,41.30
2023-03-08T18:07:47.718Z,41.50
2023-03-08T18:10:21.200Z,41.10
2023-03-08T18:12:54.322Z,41.20
2023-03-08T18:15:27.540Z,41.20
2023-03-08T18:18:02.179Z,41.10
2023-03-08T18:20:35.682Z,40.70
2023-03-08T18:23:08.932Z,40.80
2023-03-08T18:25:42.195Z,40.90
2023-03-08T18:28:16.628Z,41.00
2023-03-08T18:30:51.174Z,41.20
2023-03-08T18:33:25.692Z,41.20
2023-03-08T18:35:59.352Z,41.60
2023-03-08T18:38:32.887Z,41.90
2023-03-08T18:41:11.872Z,42.10
2023-03-08T18:43:45.222Z,42.20
2023-03-08T18:46:18.615Z,42.20
2023-03-08T18:48:53.753Z,42.40
2023-03-08T18:51:27.039Z,42.40
2023-03-08T18:54:00.580Z,42.30
2023-03-08T18:56:33.771Z,42.40
2023-03-08T18:59:07.650Z,42.50
2023-03-08T19:01:40.855Z,42.10
2023-03-08T19:04:15.335Z,42.00
2023-03-08T19:06:48.414Z,42.70
2023-03-08T19:09:21.855Z,42.10
2023-03-08T19:11:54.952Z,42.00
2023-03-08T19:14:28.082Z,42.20
2023-03-08T19:17:01.183Z,42.30
2023-03-08T19:19:35.685Z,42.20
2023-03-08T19:22:08.781Z,42.40
2023-03-08T19:24:41.868Z,42.50
2023-03-08T19:27:15.216Z,42.70
2023-03-08T19:29:48.328Z,42.80
2023-03-08T19:32:21.682Z,43.10
2023-03-08T19:34:56.307Z,43.20
2023-03-08T19:37:29.708Z,43.30
2023-03-08T19:40:02.870Z,43.30
2023-03-08T19:42:36.261Z,43.20
2023-03-08T19:45:10.063Z,43.30
2023-03-08T19:47:43.199Z,43.40
2023-03-08T19:50:17.956Z,43.40
2023-03-08T19:52:51.237Z,43.40
2023-03-08T19:55:24.322Z,43.40
2023-03-08T19:57:57.440Z,44.30
2023-03-08T20:00:30.542Z,44.10
2023-03-08T20:03:03.608Z,44.10
2023-03-08T20:05:41.711Z,44.20
2023-03-08T20:08:15.036Z,44.50
2023-03-08T20:10:49.360Z,44.50
2023-03-08T20:13:22.508Z,44.70
2023-03-08T20:15:56.117Z,44.90
2023-03-08T20:18:30.199Z,44.90
2023-03-08T20:21:06.892Z,45.10
2023-03-08T20:23:40.039Z,45.20
2023-03-08T20:26:13.196Z,45.20
2023-03-08T20:28:46.285Z,45.20
2023-03-08T20:31:19.918Z,45.40
2023-03-08T20:33:53.117Z,45.30
2023-03-08T20:36:28.465Z,45.20
2023-03-08T20:39:02.033Z,45.20
2023-03-08T20:41:35.272Z,45.20
2023-03-08T20:44:08.312Z,45.20
2023-03-08T20:46:41.479Z,45.10
2023-03-08T20:49:16.693Z,45.10
2023-03-08T20:51:52.153Z,45.20
2023-03-08T20:54:25.250Z,45.20
2023-03-08T20:56:58.671Z,45.10
2023-03-08T20:59:31.850Z,45.00
2023-03-08T21:02:04.937Z,44.90
2023-03-08T21:04:37.999Z,44.90
2023-03-08T21:07:12.514Z,44.90
2023-03-08T21:09:45.649Z,44.80
2023-03-08T21:12:18.832Z,44.80
2023-03-08T21:14:52.041Z,44.80
2023-03-08T21:17:29.885Z,44.80
2023-03-08T21:20:03.453Z,44.80
2023-03-08T21:22:38.324Z,44.80
2023-03-08T21:25:11.664Z,44.80
2023-03-08T21:27:45.009Z,44.80
2023-03-08T21:30:18.297Z,44.80
2023-03-08T21:32:51.536Z,44.80
2023-03-08T21:35:24.741Z,44.80
2023-03-08T21:37:59.249Z,45.30
2023-03-08T21:40:32.477Z,45.00
2023-03-08T21:43:05.929Z,45.00
2023-03-08T21:45:42.650Z,45.10
2023-03-08T21:48:16.009Z,45.30
2023-03-08T21:50:49.270Z,45.20
2023-03-08T21:53:23.819Z,45.50
2023-03-08T21:55:57.003Z,45.30
2023-03-08T21:58:30.507Z,45.30
2023-03-08T22:01:03.797Z,45.30
2023-03-08T22:03:36.928Z,45.20
2023-03-08T22:06:10.111Z,45.20
2023-03-08T22:08:44.665Z,45.00
2023-03-08T22:11:21.952Z,45.00
2023-03-08T22:13:57.007Z,45.20
2023-03-08T22:16:30.964Z,45.10
2023-03-08T22:19:04.792Z,45.20
2023-03-08T22:21:37.988Z,45.20
2023-03-08T22:24:12.472Z,45.10
2023-03-08T22:26:45.563Z,45.10
2023-03-08T22:29:18.699Z,45.10
2023-03-08T22:31:51.968Z,45.00
2023-03-08T22:34:25.160Z,45.00
2023-03-08T22:36:58.431Z,44.90
2023-03-08T22:39:32.912Z,44.80
2023-03-08T22:42:08.531Z,44.80
2023-03-08T22:44:42.254Z,44.70
2023-03-08T22:47:15.354Z,44.60
2023-03-08T22:49:50.465Z,44.60
2023-03-08T22:52:23.794Z,44.60
2023-03-08T22:54:58.348Z,44.50
2023-03-08T22:57:31.437Z,44.50
2023-03-08T23:00:14.234Z,44.50
2023-03-08T23:02:47.877Z,44.50
2023-03-08T23:05:21.399Z,44.70
2023-03-08T23:07:54.587Z,44.60
2023-03-08T23:10:29.158Z,44.50
2023-03-08T23:13:02.391Z,44.50
2023-03-08T23:15:35.502Z,44.40
2023-03-08T23:18:08.681Z,44.30
2023-03-08T23:20:43.489Z,44.30
2023-03-08T23:23:16.575Z,44.20
2023-03-08T23:25:51.544Z,44.10
2023-03-08T23:28:24.672Z,44.10
2023-03-08T23:30:57.819Z,44.00
2023-03-08T23:33:30.933Z,43.90
2023-03-08T23:36:04.077Z,43.90
2023-03-08T23:38:37.223Z,43.90
2023-03-08T23:41:12.414Z,43.90
2023-03-08T23:43:46.251Z,43.90
2023-03-08T23:46:20.121Z,43.80
2023-03-08T23:48:55.187Z,43.90
2023-03-08T23:51:29.175Z,44.50
2023-03-08T23:54:02.777Z,44.00
2023-03-08T23:56:39.164Z,44.00
2023-03-08T23:59:13.468Z,44.00
